Latest Weather Observations for Lockhart River

IDQ60801

Issued at 8:35 pm EST Thursday 27 November 2014 (issued every 30 minutes, with the page automatically refreshed every 10 minutes)

About weather observations | Map of weather stations | Latest weather observations for QLD | Other Formats
Station Details ID: 028008 Name: LOCKHART RIVER AIRPORT Lat: -12.79 Lon: 143.30 Height: 18.5 m
Data from the previous 72 hours. | See also: Recent months at Lockhart River
Date/Time
EST
Temp
°C
App
Temp
°C
Dew
Point
Rel
Hum
%
Delta-T
°C
Wind Press
QNH
hPa
Press
MSL
hPa
Rain
since 9 am
mm
Dir
 
Spd
km/h
Gust
km/h
Spd
kts
Gust
kts
27/08:30pm 26.9 28.8 21.4 72 3.7 ESE 13 17 7 9 1010.0 - 0.0
27/08:00pm 27.0 28.9 21.3 71 3.8 ESE 13 19 7 10 1009.9 - 0.0
27/07:30pm 27.1 28.3 20.7 68 4.2 ESE 15 20 8 11 1009.5 - 0.0
27/07:00pm 27.3 28.4 20.4 66 4.5 ESE 15 20 8 11 1009.3 - 0.0
27/06:30pm 27.6 28.3 20.4 65 4.7 E 17 22 9 12 1008.8 - 0.0
27/06:00pm 28.3 28.6 20.3 62 5.3 E 19 30 10 16 1008.8 1008.7 0.0
27/05:30pm 29.5 29.1 20.1 57 6.2 ESE 22 30 12 16 1008.8 - 0.0
27/05:00pm 29.9 29.8 19.9 55 6.6 SE 20 26 11 14 1009.0 - 0.0
27/04:30pm 30.0 29.8 19.7 54 6.7 ESE 20 32 11 17 1008.6 - 0.0
27/04:00pm 30.0 29.5 20.0 55 6.6 E 22 32 12 17 1008.6 - 0.0
27/03:30pm 30.7 30.5 20.6 54 6.7 E 22 32 12 17 1008.6 - 0.0
27/03:00pm 31.2 31.5 20.8 54 7.0 ESE 20 32 11 17 1008.8 1008.7 0.0
27/02:30pm 30.6 30.5 20.8 56 6.5 E 22 39 12 21 1008.9 - 0.0
27/02:00pm 30.5 30.0 20.7 55 6.5 E 24 35 13 19 1009.1 - 0.0
27/01:30pm 30.6 30.2 20.2 53 6.9 E 22 37 12 20 1009.5 - 0.0
27/01:00pm 30.9 30.7 20.5 54 6.9 E 22 35 12 19 1009.8 - 0.0
27/12:30pm 30.6 29.9 21.1 57 6.4 ESE 26 37 14 20 1010.0 - 0.0
27/12:00pm 30.5 30.6 21.8 59 5.9 E 24 37 13 20 1010.1 1010.0 0.0
27/11:30am 30.3 29.1 20.8 56 6.3 ESE 28 41 15 22 1010.5 - 0.0
27/11:00am 30.3 30.4 22.5 63 5.3 E 26 43 14 23 1010.7 - 0.0
27/10:30am 30.9 30.5 23.0 62 5.4 E 30 43 16 23 1010.7 - 0.0
27/10:00am 29.9 30.2 22.3 63 5.2 E 24 33 13 18 1010.7 - 0.0
27/09:30am 29.5 29.6 22.5 66 4.8 E 26 39 14 21 1011.0 - 0.0
27/09:00am 30.2 31.1 23.4 67 4.7 ESE 24 41 13 22 1010.8 1010.7 0.0
27/08:30am 28.8 29.6 23.2 71 3.8 ESE 24 35 13 19 1010.7 - 0.0
27/08:00am 28.9 30.2 23.3 72 3.8 E 22 33 12 18 1010.5 - 0.0
27/07:30am 27.9 29.5 23.3 76 3.1 ESE 20 33 11 18 1010.3 - 0.0
27/07:00am 27.6 29.2 23.2 77 3.0 ESE 20 32 11 17 1010.1 - 0.0
27/06:40am 27.3 29.9 23.3 79 2.7 ESE 15 20 8 11 1010.0 - 0.0
27/06:30am 27.2 29.0 23.2 79 2.7 ESE 19 28 10 15 1010.0 - 0.0
27/06:20am 27.1 29.3 23.3 80 2.6 ESE 17 26 9 14 1009.8 - 0.0
27/06:00am 26.9 28.9 22.9 79 2.7 ESE 17 24 9 13 1009.6 1009.5 0.0
27/05:30am 26.9 29.4 23.2 80 2.5 ESE 15 22 8 12 1009.4 - 0.0
27/05:00am 27.0 29.0 23.0 79 2.7 ESE 17 24 9 13 1009.2 - 0.0
27/04:39am 27.1 28.8 23.1 79 2.7 ESE 19 33 10 18 1009.2 - 0.0
27/04:30am 27.1 28.6 23.1 79 2.7 ESE 20 33 11 18 1009.1 - 0.0
27/04:08am 27.0 29.7 23.5 81 2.4 ESE 15 26 8 14 1008.8 - 0.0
27/04:00am 27.0 28.8 23.3 80 2.5 ESE 19 28 10 15 1008.7 - 0.0
27/03:40am 26.9 28.5 23.2 80 2.5 ESE 20 28 11 15 1008.5 - 0.0
27/03:30am 26.8 29.5 23.5 82 2.3 ESE 15 22 8 12 1008.5 - 0.0
27/03:22am 26.8 29.1 23.5 82 2.3 ESE 17 24 9 13 1008.6 - 0.0
27/03:19am 26.8 28.7 23.5 82 2.3 ESE 19 28 10 15 1008.6 - 0.0
27/03:06am 26.8 28.4 23.3 81 2.4 ESE 20 30 11 16 1008.5 - 0.0
27/03:00am 26.9 28.7 23.2 80 2.5 ESE 19 28 10 15 1008.6 - 0.0
27/02:47am 27.2 28.3 23.0 78 2.9 ESE 22 32 12 17 1008.5 - 0.0
27/02:30am 27.1 29.9 23.6 81 2.4 ESE 15 22 8 12 1008.7 - 0.0
27/02:05am 27.0 28.8 23.3 80 2.5 ESE 19 28 10 15 1008.8 - 0.0
27/02:00am 26.9 28.7 23.2 80 2.5 ESE 19 28 10 15 1008.8 - 0.0
27/01:30am 27.0 29.2 23.3 80 2.5 ESE 17 20 9 11 1009.0 - 0.0
27/01:10am 27.1 28.8 23.1 79 2.7 ESE 19 26 10 14 1009.2 - 0.0
27/01:00am 27.1 28.8 23.1 79 2.7 SE 19 24 10 13 1009.3 - 0.0
27/12:30am 27.1 29.2 23.1 79 2.7 ESE 17 22 9 12 1009.5 - 0.0
27/12:23am 27.2 29.7 23.2 79 2.7 ESE 15 28 8 15 1009.5 - 0.0
27/12:00am 27.2 28.8 23.2 79 2.7 ESE 20 32 11 17 1009.8 1009.7 0.0
 
Date/Time
EST
Temp
°C
App
Temp
°C
Dew
Point
Rel
Hum
%
Delta-T
°C
Wind Press
QNH
hPa
Press
MSL
hPa
Rain
since 9 am
mm
Dir
 
Spd
km/h
Gust
km/h
Spd
kts
Gust
kts
26/11:30pm 27.3 28.9 23.3 79 2.7 ESE 20 30 11 16 1009.9 - 0.0
26/11:00pm 27.4 28.3 23.4 79 2.7 ESE 24 35 13 19 1009.9 - 0.0
26/10:39pm 27.3 28.9 23.3 79 2.7 ESE 20 30 11 16 1009.9 - 0.0
26/10:30pm 27.3 28.9 23.3 79 2.7 ESE 20 33 11 18 1009.9 - 0.0
26/10:00pm 27.5 29.4 23.5 79 2.7 ESE 19 30 10 16 1010.0 - 0.0
26/09:30pm 27.6 30.4 23.6 79 2.7 ESE 15 24 8 13 1009.8 - 0.0
26/09:03pm 27.4 29.3 23.4 79 2.7 ESE 19 32 10 17 1009.5 - 0.0
26/09:00pm 27.4 29.7 23.4 79 2.7 ESE 17 32 9 17 1009.5 1009.4 0.0
26/08:35pm 27.3 29.6 23.5 80 2.6 ESE 17 24 9 13 1009.2 - 0.0
26/08:30pm 27.3 29.2 23.5 80 2.6 ESE 19 24 10 13 1009.2 - 0.0
26/08:11pm 27.4 29.3 23.4 79 2.7 ESE 19 26 10 14 1009.0 - 0.0
26/08:00pm 27.4 30.2 23.6 80 2.6 ESE 15 22 8 12 1009.0 - 0.0
26/07:59pm 27.4 30.2 23.6 80 2.6 ESE 15 22 8 12 1009.0 - 0.0
26/07:30pm 27.4 29.6 23.2 78 2.9 ESE 17 22 9 12 1008.9 - 0.0
26/07:00pm 27.8 29.6 23.2 76 3.1 ESE 19 26 10 14 1008.7 - 0.0
26/06:30pm 28.0 29.7 23.1 74 3.3 ESE 19 26 10 14 1008.6 - 0.0
26/06:00pm 28.6 30.2 23.3 73 3.6 ESE 20 28 11 15 1008.4 1008.3 0.0
26/05:30pm 28.8 30.6 23.2 71 3.8 ESE 19 28 10 15 1008.2 - 0.0
26/05:00pm 29.2 29.6 22.4 66 4.6 ESE 24 33 13 18 1008.0 - 0.0
26/04:30pm 28.6 30.6 23.9 75 3.2 SE 20 26 11 14 1007.9 - 0.0
26/04:12pm 28.1 27.9 22.8 73 3.6 ESE 28 46 15 25 1007.7 - 0.0
26/04:00pm 29.3 29.4 22.5 67 4.6 ESE 26 43 14 23 1007.6 - 0.0
26/03:30pm 30.9 31.7 22.5 61 5.7 E 22 32 12 17 1007.6 - 0.0
26/03:00pm 30.4 30.7 22.3 62 5.5 E 24 33 13 18 1007.8 1007.7 0.0
26/02:30pm 29.8 30.9 23.0 67 4.7 E 22 32 12 17 1008.2 - 0.0
26/02:00pm 29.6 29.8 22.8 67 4.6 E 26 43 14 23 1008.2 - 0.0
26/01:30pm 30.9 32.2 23.3 64 5.2 E 22 37 12 20 1008.3 - 0.0
26/01:00pm 31.2 32.2 22.8 61 5.8 E 22 33 12 18 1008.5 - 0.0
26/12:30pm 30.4 31.0 22.8 64 5.2 E 24 39 13 21 1008.9 - 0.0
26/12:00pm 30.9 30.4 22.2 59 5.9 ESE 28 41 15 22 1009.4 1009.3 0.0
26/11:30am 30.7 30.8 22.6 62 5.5 ESE 26 39 14 21 1009.6 - 0.0
26/11:00am 29.8 29.9 22.5 65 5.0 E 26 39 14 21 1009.9 - 0.0
26/10:30am 31.0 32.1 23.1 63 5.4 E 22 32 12 17 1010.0 - 0.0
26/10:00am 31.0 32.2 23.9 66 4.9 E 24 35 13 19 1010.2 - 0.0
26/09:30am 30.5 31.3 23.2 65 5.0 ESE 24 37 13 20 1010.2 - 0.0
26/09:00am 29.6 30.0 23.1 68 4.5 ESE 26 39 14 21 1009.9 1009.8 0.2
26/08:30am 29.0 29.4 22.5 68 4.4 ESE 24 35 13 19 1009.8 - 0.2
26/08:00am 28.8 30.2 23.5 73 3.6 ESE 22 32 12 17 1009.4 - 0.2
26/07:30am 27.9 29.3 22.8 74 3.5 ESE 20 32 11 17 1009.2 - 0.2
26/07:27am 28.0 29.0 22.9 74 3.5 ESE 22 33 12 18 1009.2 - 0.2
26/07:00am 27.5 28.8 23.3 78 2.9 ESE 22 33 12 18 1008.9 - 0.2
26/06:34am 26.8 28.9 23.7 83 2.1 ESE 19 24 10 13 1008.6 - 0.2
26/06:32am 26.7 28.7 23.6 83 2.1 ESE 19 28 10 15 1008.6 - 0.2
26/06:30am 26.7 28.7 23.6 83 2.1 ESE 19 28 10 15 1008.6 - 0.2
26/06:12am 26.6 29.3 23.5 83 2.1 ESE 15 22 8 12 1008.4 - 0.2
26/06:00am 26.4 28.6 23.3 83 2.1 ESE 17 22 9 12 1008.3 1008.2 0.2
26/05:40am 26.3 28.6 23.4 84 2.0 SE 17 24 9 13 1008.2 - 0.2
26/05:30am 26.3 28.7 23.6 85 1.8 SE 17 22 9 12 1008.1 - 0.2
26/05:00am 26.3 29.4 23.6 85 1.8 SE 13 17 7 9 1007.9 - 0.2
26/04:48am 26.4 29.1 23.5 84 2.0 SE 15 22 8 12 1007.8 - 0.2
26/04:30am 26.4 28.9 23.1 82 2.2 ESE 15 24 8 13 1007.8 - 0.2
26/04:00am 26.6 29.0 22.9 80 2.5 ESE 15 22 8 12 1007.8 - 0.2
26/03:54am 26.5 28.9 23.0 81 2.4 ESE 15 28 8 15 1007.8 - 0.2
26/03:30am 26.5 29.4 23.8 85 1.9 ESE 15 20 8 11 1007.8 - 0.2
26/03:00am 26.4 28.7 23.5 84 2.0 ESE 17 22 9 12 1007.8 1007.7 0.2
26/02:36am 26.4 29.2 23.7 85 1.9 ESE 15 22 8 12 1007.8 - 0.2
26/02:30am 26.3 29.6 23.8 86 1.7 SE 13 22 7 12 1007.8 - 0.2
26/02:13am 26.4 29.1 23.5 84 2.0 ESE 15 20 8 11 1008.1 - 0.2
26/02:00am 26.3 29.1 23.6 85 1.8 ESE 15 24 8 13 1008.2 - 0.2
26/01:52am 26.3 28.8 23.8 86 1.7 ESE 17 24 9 13 1008.2 - 0.2
26/01:30am 27.0 29.3 23.5 81 2.4 E 17 24 9 13 1008.4 - 0.0
26/01:26am 26.9 29.2 23.4 81 2.4 ESE 17 24 9 13 1008.5 - 0.0
26/01:00am 26.9 29.6 23.4 81 2.4 ESE 15 22 8 12 1008.9 - 0.0
26/12:56am 26.9 29.6 23.4 81 2.4 ESE 15 20 8 11 1009.0 - 0.0
26/12:48am 26.9 29.2 23.4 81 2.4 ESE 17 28 9 15 1009.1 - 0.0
26/12:30am 27.0 29.3 23.5 81 2.4 ESE 17 32 9 17 1009.2 - 0.0
26/12:12am 26.9 29.1 23.2 80 2.5 ESE 17 24 9 13 1009.5 - 0.0
26/12:09am 26.9 29.1 23.2 80 2.5 ESE 17 26 9 14 1009.6 - 0.0
26/12:00am 27.0 28.8 23.3 80 2.5 ESE 19 26 10 14 1009.6 1009.5 0.0
 
Date/Time
EST
Temp
°C
App
Temp
°C
Dew
Point
Rel
Hum
%
Delta-T
°C
Wind Press
QNH
hPa
Press
MSL
hPa
Rain
since 9 am
mm
Dir
 
Spd
km/h
Gust
km/h
Spd
kts
Gust
kts
25/11:30pm 27.2 29.1 23.4 80 2.6 ESE 19 28 10 15 1010.0 - 0.0
25/11:27pm 27.2 29.0 23.2 79 2.7 ESE 19 28 10 15 1010.0 - 0.0
25/11:00pm 27.2 29.0 23.2 79 2.7 ESE 19 28 10 15 1010.1 - 0.0
25/10:30pm 27.2 29.4 23.2 79 2.7 ESE 17 26 9 14 1010.2 - 0.0
25/10:00pm 27.3 29.5 23.3 79 2.7 ESE 17 24 9 13 1010.3 - 0.0
25/09:30pm 27.2 29.2 23.0 78 2.9 ESE 17 24 9 13 1009.9 - 0.0
25/09:00pm 27.2 29.2 23.0 78 2.9 ESE 17 24 9 13 1009.7 1009.6 0.0
25/08:30pm 27.3 29.4 23.1 78 2.9 ESE 17 22 9 12 1009.7 - 0.0
25/08:00pm 27.3 29.3 22.9 77 3.0 ESE 17 22 9 12 1009.4 - 0.0
25/07:30pm 27.4 29.4 23.0 77 3.0 ESE 17 22 9 12 1009.2 - 0.0
25/07:00pm 27.6 29.5 22.8 75 3.3 ESE 17 26 9 14 1008.8 - 0.0
25/06:30pm 27.8 30.2 23.0 75 3.3 ESE 15 22 8 12 1008.5 - 0.0
25/06:00pm 27.9 30.0 23.1 75 3.3 ESE 17 22 9 12 1008.4 1008.3 0.0
25/05:30pm 28.6 30.4 22.6 70 4.1 ESE 17 22 9 12 1008.1 - 0.0
25/05:00pm 28.8 29.9 22.3 68 4.4 E 20 30 11 16 1008.0 - 0.0
25/04:30pm 29.9 31.4 23.1 67 4.7 ESE 20 30 11 16 1007.9 - 0.0
25/04:00pm 30.2 31.1 22.6 63 5.2 E 22 32 12 17 1007.8 - 0.0
25/03:30pm 30.9 31.5 22.8 62 5.5 ESE 24 35 13 19 1007.9 - 0.0
25/03:00pm 30.5 30.2 21.8 59 5.9 E 26 35 14 19 1008.1 1008.0 0.0
25/02:30pm 30.6 30.7 22.5 62 5.5 ESE 26 37 14 20 1008.2 - 0.0
25/02:00pm 31.3 32.6 22.6 60 5.9 E 20 35 11 19 1008.4 - 0.0
25/01:30pm 31.5 31.7 22.8 60 6.0 ESE 26 35 14 19 1008.8 - 0.0
25/01:00pm 30.6 31.1 21.9 59 5.9 E 22 37 12 20 1009.1 - 0.0
25/12:30pm 31.6 31.8 22.0 56 6.5 E 24 41 13 22 1009.4 - 0.0
25/12:00pm 30.5 30.2 21.8 59 5.9 E 26 39 14 21 1009.8 1009.7 0.0
25/11:30am 31.5 31.8 22.2 57 6.3 ESE 24 39 13 21 1010.0 - 0.0
25/11:00am 30.6 31.3 22.2 61 5.7 ESE 22 41 12 22 1010.3 - 0.0
25/10:30am 30.6 30.5 22.2 61 5.7 ESE 26 35 14 19 1010.4 - 0.0
25/10:00am 30.8 32.1 24.0 67 4.7 ESE 24 35 13 19 1010.5 - 0.0
25/09:30am 29.8 31.0 22.5 65 5.0 ESE 20 32 11 17 1010.7 - 0.0
25/09:00am 29.9 31.2 22.6 65 5.0 ESE 20 32 11 17 1010.8 1010.7 0.0
25/08:30am 28.7 29.7 22.2 68 4.4 E 20 28 11 15 1010.8 - 0.0
25/08:00am 28.9 29.6 22.2 67 4.5 ESE 22 33 12 18 1010.6 - 0.0
25/07:30am 28.0 28.4 22.5 72 3.7 SE 24 33 13 18 1010.2 - 0.0
25/07:00am 26.7 29.9 23.0 80 2.5 S 11 15 6 8 1009.9 - 0.0
25/06:30am 27.1 29.5 22.9 78 2.9 SE 15 20 8 11 1009.7 - 0.0
25/06:22am 26.9 29.6 22.9 79 2.7 SE 13 17 7 9 1009.6 - 0.0
25/06:00am 26.6 29.5 23.1 81 2.4 SE 13 19 7 10 1009.5 1009.4 0.0
25/05:35am 26.4 29.3 23.1 82 2.2 ESE 13 19 7 10 1009.3 - 0.0
25/05:30am 26.4 28.9 23.1 82 2.2 ESE 15 20 8 11 1009.2 - 0.0
25/05:00am 26.3 28.2 22.8 81 2.4 SE 17 22 9 12 1008.9 - 0.0
25/04:39am 26.6 28.2 22.9 80 2.5 SE 19 24 10 13 1009.0 - 0.0
25/04:30am 26.4 27.9 22.7 80 2.5 SE 19 24 10 13 1008.9 - 0.0
25/04:00am 26.6 28.6 22.9 80 2.5 ESE 17 26 9 14 1008.9 - 0.0
25/03:48am 26.5 28.8 22.8 80 2.5 ESE 15 22 8 12 1008.8 - 0.0
25/03:30am 26.4 28.8 22.9 81 2.4 SE 15 19 8 10 1008.8 - 0.0
25/03:14am 26.4 28.7 22.7 80 2.5 ESE 15 24 8 13 1009.0 - 0.0
25/03:00am 26.5 28.9 23.0 81 2.4 ESE 15 22 8 12 1009.1 1009.0 0.0
25/02:57am 26.5 28.9 23.0 81 2.4 ESE 15 22 8 12 1009.0 - 0.0
25/02:39am 26.4 29.3 23.1 82 2.2 ESE 13 20 7 11 1009.2 - 0.0
25/02:30am 26.5 29.0 23.2 82 2.2 ESE 15 24 8 13 1009.4 - 0.0
25/02:00am 25.6 29.3 23.3 87 1.6 SSE 9 13 5 7 1009.6 - 0.0
25/01:32am 24.9 27.8 22.4 86 1.7 S 11 17 6 9 1009.8 - 0.0
25/01:31am 25.0 27.9 22.5 86 1.7 S 11 17 6 9 1009.8 - 0.0
25/01:30am 25.1 28.4 22.6 86 1.7 S 9 17 5 9 1009.8 - 0.0
25/01:00am 25.2 28.8 23.1 88 1.4 SSE 9 13 5 7 1010.0 - 0.0
25/12:30am 24.7 28.6 22.6 88 1.4 S 6 7 3 4 1010.3 - 0.0
25/12:00am 24.9 29.5 22.4 86 1.7 S 2 6 1 3 1010.8 1010.7 0.0
 
Date/Time
EST
Temp
°C
App
Temp
°C
Dew
Point
Rel
Hum
%
Delta-T
°C
Wind Press
QNH
hPa
Press
MSL
hPa
Rain
since 9 am
mm
Dir
 
Spd
km/h
Gust
km/h
Spd
kts
Gust
kts
24/11:30pm 25.1 29.7 22.4 85 1.8 SE 2 6 1 3 1011.2 - 0.0
24/11:00pm 25.4 29.1 22.5 84 2.0 S 7 9 4 5 1011.4 - 0.0
24/10:58pm 25.4 29.1 22.5 84 2.0 S 7 9 4 5 1011.4 - 0.0
24/10:46pm 25.6 29.9 22.7 84 2.0 S 4 7 2 4 1011.4 - 0.0
24/10:30pm 25.6 30.3 22.7 84 2.0 S 2 6 1 3 1011.3 - 0.0
24/10:00pm 25.7 29.4 22.6 83 2.1 S 7 11 4 6 1011.0 - 0.0
24/09:30pm 26.1 29.6 22.8 82 2.2 SSE 9 13 5 7 1010.4 - 0.0
24/09:00pm 26.5 30.0 22.8 80 2.5 SSE 9 13 5 7 1010.3 1010.2 0.0

Other Formats:

Comma delimited format used in spreadsheet applications
http://www.bom.gov.au/fwo/IDQ60801/IDQ60801.94186.axf

JavaScript Object Notation format (JSON) in row-major order
http://www.bom.gov.au/fwo/IDQ60801/IDQ60801.94186.json